Time;durP1;ratioP1;P1;durP2;ratioP2;P2;SDS_P1;SDS_P2;PMS_P1;PMS_P2;Temp;Humidity;BMP_temperature;BMP_pressure;BME280_temperature;BME280_humidity;BME280_pressure;Samples;Min_cycle;Max_cycle;Signal;HPM_P1;HPM_P2
2023/06/28 00:02:10;;;;;;;8.57;5.82;;;;;;;;;;4375896;32;317218;-84
2023/06/28 00:04:37;;;;;;;13.05;6.37;;;;;;;;;;4386897;32;316843;-83
2023/06/28 00:07:07;;;;;;;10.07;5.70;;;;;;;;;;4377065;32;318213;-83
2023/06/28 00:09:34;;;;;;;7.90;6.03;;;;;;;;;;4386929;32;317734;-84
2023/06/28 00:12:03;;;;;;;10.30;5.37;;;;;;;;;;4376631;32;317121;-85
2023/06/28 00:14:30;;;;;;;9.02;5.50;;;;;;;;;;4387786;32;317641;-84
2023/06/28 00:16:59;;;;;;;6.28;5.15;;;;;;;;;;4377306;32;317143;-83
2023/06/28 00:19:28;;;;;;;6.80;5.05;;;;;;;;;;4386577;32;316936;-83
2023/06/28 00:21:55;;;;;;;13.85;5.00;;;;;;;;;;4375729;32;353898;-82
2023/06/28 00:24:22;;;;;;;8.70;5.22;;;;;;;;;;4386418;32;318014;-84
2023/06/28 00:26:50;;;;;;;7.37;5.60;;;;;;;;;;4377217;32;316794;-83
2023/06/28 00:29:17;;;;;;;9.23;5.50;;;;;;;;;;4386016;32;316823;-83
2023/06/28 00:31:45;;;;;;;7.30;5.18;;;;;;;;;;4377383;32;316868;-83
2023/06/28 00:34:12;;;;;;;8.25;6.07;;;;;;;;;;4386925;32;333081;-83
2023/06/28 00:36:42;;;;;;;8.90;4.87;;;;;;;;;;4385565;32;317031;-83
2023/06/28 00:39:09;;;;;;;16.17;5.03;;;;;;;;;;4372596;32;415715;-78
2023/06/28 00:41:36;;;;;;;5.93;4.72;;;;;;;;;;4385915;32;317864;-78
2023/06/28 00:44:05;;;;;;;7.62;4.75;;;;;;;;;;4375346;32;316877;-79
2023/06/28 00:46:32;;;;;;;7.28;4.68;;;;;;;;;;4387102;32;316758;-84
2023/06/28 00:49:00;;;;;;;5.05;4.50;;;;;;;;;;4374914;32;316750;-84
2023/06/28 00:51:28;;;;;;;6.87;5.40;;;;;;;;;;4386817;32;320517;-83
2023/06/28 00:53:57;;;;;;;6.60;5.23;;;;;;;;;;4373860;32;352720;-79
2023/06/28 00:56:25;;;;;;;11.57;5.00;;;;;;;;;;4386828;32;317111;-80
2023/06/28 00:58:52;;;;;;;7.72;6.07;;;;;;;;;;4374947;32;317988;-85
2023/06/28 01:01:20;;;;;;;9.77;5.15;;;;;;;;;;4386798;32;316658;-79
2023/06/28 01:03:51;;;;;;;7.35;4.65;;;;;;;;;;4373827;32;321210;-79
2023/06/28 01:06:21;;;;;;;9.40;5.22;;;;;;;;;;4385417;32;316685;-79
2023/06/28 01:08:49;;;;;;;6.28;4.95;;;;;;;;;;4376268;32;317041;-80
2023/06/28 01:11:19;;;;;;;6.80;5.07;;;;;;;;;;4386594;32;316799;-79
2023/06/28 01:13:47;;;;;;;7.15;5.28;;;;;;;;;;4375169;32;316787;-85
2023/06/28 01:16:15;;;;;;;6.30;4.87;;;;;;;;;;4385057;32;316747;-80
2023/06/28 01:18:42;;;;;;;6.40;5.00;;;;;;;;;;4385416;32;358846;-84
2023/06/28 01:21:12;;;;;;;6.28;5.30;;;;;;;;;;4372322;32;415974;-84
2023/06/28 01:23:41;;;;;;;5.95;5.20;;;;;;;;;;4384955;32;317381;-84
2023/06/28 01:26:09;;;;;;;7.93;5.07;;;;;;;;;;4373265;32;416012;-83
2023/06/28 01:28:38;;;;;;;8.23;5.28;;;;;;;;;;4386030;32;316698;-84
2023/06/28 01:31:06;;;;;;;12.00;5.22;;;;;;;;;;4375667;32;317040;-84
2023/06/28 01:33:33;;;;;;;7.60;5.32;;;;;;;;;;4384246;32;317699;-84
2023/06/28 01:36:01;;;;;;;9.27;5.37;;;;;;;;;;4376587;32;316741;-83
2023/06/28 01:38:29;;;;;;;7.62;5.62;;;;;;;;;;4385178;32;316553;-85
2023/06/28 01:40:59;;;;;;;6.55;4.93;;;;;;;;;;4376661;32;317596;-84
2023/06/28 01:43:27;;;;;;;6.87;5.57;;;;;;;;;;4386589;32;317068;-84
2023/06/28 01:45:55;;;;;;;6.95;5.07;;;;;;;;;;4374214;32;316900;-86
2023/06/28 01:48:22;;;;;;;6.95;5.47;;;;;;;;;;4386402;32;316967;-87
2023/06/28 01:50:50;;;;;;;12.93;6.37;;;;;;;;;;4374531;32;316998;-84
2023/06/28 01:53:19;;;;;;;6.28;5.68;;;;;;;;;;4385522;32;317747;-82
2023/06/28 01:55:46;;;;;;;7.35;5.87;;;;;;;;;;4376291;32;316847;-85
2023/06/28 01:58:15;;;;;;;6.43;5.72;;;;;;;;;;4384826;32;316855;-82
2023/06/28 02:00:43;;;;;;;5.90;5.30;;;;;;;;;;4381724;32;317014;-84
2023/06/28 02:03:10;;;;;;;7.90;6.30;;;;;;;;;;4384728;32;316565;-82
2023/06/28 02:05:39;;;;;;;6.62;5.65;;;;;;;;;;4385960;32;316736;-84
2023/06/28 02:08:07;;;;;;;10.27;5.20;;;;;;;;;;4375558;32;316653;-83
2023/06/28 02:10:35;;;;;;;9.82;5.72;;;;;;;;;;4386156;32;317626;-82
2023/06/28 02:13:02;;;;;;;6.57;5.70;;;;;;;;;;4374006;32;355638;-87
2023/06/28 02:15:31;;;;;;;14.07;6.10;;;;;;;;;;4386485;32;317012;-84
2023/06/28 02:17:58;;;;;;;8.97;6.17;;;;;;;;;;4375965;32;320635;-84
2023/06/28 02:20:26;;;;;;;13.13;5.95;;;;;;;;;;4389222;32;316617;-84
2023/06/28 02:22:53;;;;;;;9.02;5.72;;;;;;;;;;4378552;32;317940;-84
2023/06/28 02:25:20;;;;;;;14.80;6.22;;;;;;;;;;4394538;32;316851;-84
2023/06/28 02:27:48;;;;;;;8.10;5.85;;;;;;;;;;4378743;32;318035;-82
2023/06/28 02:30:15;;;;;;;12.10;5.97;;;;;;;;;;4387398;32;352911;-84
2023/06/28 02:32:44;;;;;;;13.40;5.72;;;;;;;;;;4380002;32;318025;-85
2023/06/28 02:35:13;;;;;;;8.40;5.68;;;;;;;;;;4389085;32;318556;-84
2023/06/28 02:37:40;;;;;;;8.40;5.47;;;;;;;;;;4388697;32;316792;-77
2023/06/28 02:40:10;;;;;;;9.65;5.93;;;;;;;;;;4377677;32;416038;-84
2023/06/28 02:42:37;;;;;;;7.45;5.62;;;;;;;;;;4391756;32;316688;-77
2023/06/28 02:45:05;;;;;;;6.05;5.30;;;;;;;;;;4378606;32;316925;-88
2023/06/28 02:47:33;;;;;;;7.75;6.18;;;;;;;;;;4388549;32;317083;-85
2023/06/28 02:50:05;;;;;;;13.07;5.45;;;;;;;;;;4377233;32;316626;-81
2023/06/28 02:52:32;;;;;;;6.93;6.28;;;;;;;;;;4386184;32;317841;-84
2023/06/28 02:55:00;;;;;;;8.80;6.00;;;;;;;;;;4377928;32;316634;-78
2023/06/28 02:57:27;;;;;;;11.85;5.43;;;;;;;;;;4387864;32;316997;-78
2023/06/28 02:59:55;;;;;;;6.65;5.25;;;;;;;;;;4375805;32;317897;-88
2023/06/28 03:02:22;;;;;;;11.60;5.30;;;;;;;;;;4388266;32;316830;-83
2023/06/28 03:04:49;;;;;;;9.18;6.25;;;;;;;;;;4376559;32;317805;-83
2023/06/28 03:07:19;;;;;;;11.40;6.32;;;;;;;;;;4388161;32;316703;-83
2023/06/28 03:09:46;;;;;;;7.85;6.68;;;;;;;;;;4377755;32;342765;-83
2023/06/28 03:12:14;;;;;;;6.87;5.80;;;;;;;;;;4386441;32;316839;-86
2023/06/28 03:14:43;;;;;;;6.53;5.60;;;;;;;;;;4388141;32;316618;-86
2023/06/28 03:17:11;;;;;;;11.18;6.37;;;;;;;;;;4375214;32;386868;-84
2023/06/28 03:19:38;;;;;;;9.98;6.12;;;;;;;;;;4387663;32;317684;-84
2023/06/28 03:22:05;;;;;;;8.45;6.28;;;;;;;;;;4375718;32;326441;-85
2023/06/28 03:24:34;;;;;;;12.43;5.87;;;;;;;;;;4388063;32;316674;-83
2023/06/28 03:27:02;;;;;;;12.63;6.03;;;;;;;;;;4376084;32;317712;-89
2023/06/28 03:29:30;;;;;;;14.75;6.40;;;;;;;;;;4386723;32;317571;-85
2023/06/28 03:31:58;;;;;;;12.15;6.37;;;;;;;;;;4378142;32;317845;-85
2023/06/28 03:34:26;;;;;;;14.48;6.15;;;;;;;;;;4387556;32;317818;-85
2023/06/28 03:36:53;;;;;;;9.65;6.28;;;;;;;;;;4378123;32;317859;-85
2023/06/28 03:39:20;;;;;;;10.75;6.50;;;;;;;;;;4388285;32;317192;-85
2023/06/28 03:41:49;;;;;;;7.35;5.93;;;;;;;;;;4377079;32;318034;-83
2023/06/28 03:44:17;;;;;;;7.95;6.03;;;;;;;;;;4385999;32;316702;-85
2023/06/28 03:46:44;;;;;;;7.65;6.10;;;;;;;;;;4377368;32;316964;-83
2023/06/28 03:49:11;;;;;;;9.38;5.53;;;;;;;;;;4386862;32;316766;-84
2023/06/28 03:51:39;;;;;;;7.37;6.32;;;;;;;;;;4388188;32;316979;-83
2023/06/28 03:54:07;;;;;;;8.27;6.25;;;;;;;;;;4375490;32;350594;-83
2023/06/28 03:56:34;;;;;;;9.82;7.05;;;;;;;;;;4391162;32;316890;-84
2023/06/28 03:59:04;;;;;;;9.05;6.03;;;;;;;;;;4384972;32;335818;-84
2023/06/28 04:01:32;;;;;;;10.18;6.57;;;;;;;;;;4394931;32;316907;-84
2023/06/28 04:04:00;;;;;;;13.10;6.35;;;;;;;;;;4385750;32;317674;-84
2023/06/28 04:06:28;;;;;;;11.77;6.90;;;;;;;;;;4394949;32;321312;-84
2023/06/28 04:08:58;;;;;;;8.57;6.95;;;;;;;;;;4376709;32;318115;-84
2023/06/28 04:11:29;;;;;;;9.23;6.65;;;;;;;;;;4387858;32;316688;-83
2023/06/28 04:13:57;;;;;;;16.08;7.30;;;;;;;;;;4377265;32;317765;-79
2023/06/28 04:16:26;;;;;;;11.27;6.68;;;;;;;;;;4382409;32;317768;-78
2023/06/28 04:18:54;;;;;;;9.63;6.90;;;;;;;;;;4375855;32;318222;-84
2023/06/28 04:21:21;;;;;;;23.92;7.40;;;;;;;;;;4387217;32;317416;-79
2023/06/28 04:23:49;;;;;;;20.98;6.32;;;;;;;;;;4375200;32;318061;-79
2023/06/28 04:26:16;;;;;;;17.67;6.50;;;;;;;;;;4373054;32;318024;-79
2023/06/28 04:28:44;;;;;;;8.57;7.37;;;;;;;;;;4381102;32;317931;-79
2023/06/28 04:31:11;;;;;;;11.60;7.78;;;;;;;;;;4386667;32;316683;-83
2023/06/28 04:33:40;;;;;;;11.52;7.55;;;;;;;;;;4385798;32;318277;-79
2023/06/28 04:36:07;;;;;;;9.75;7.00;;;;;;;;;;4376761;32;317918;-78
2023/06/28 04:38:35;;;;;;;7.50;6.37;;;;;;;;;;4385548;32;329539;-78
2023/06/28 04:41:03;;;;;;;15.23;7.62;;;;;;;;;;4376104;32;316831;-79
2023/06/28 04:43:41;;;;;;;10.75;7.20;;;;;;;;;;4386382;32;317754;-81
2023/06/28 04:46:11;;;;;;;16.12;7.85;;;;;;;;;;4373909;32;386709;-86
2023/06/28 04:48:40;;;;;;;12.80;8.32;;;;;;;;;;4385547;32;319693;-85
2023/06/28 04:51:08;;;;;;;11.43;7.60;;;;;;;;;;4374552;32;387954;-80
2023/06/28 04:53:35;;;;;;;14.20;7.40;;;;;;;;;;4386641;32;317910;-77
2023/06/28 04:56:03;;;;;;;7.18;6.47;;;;;;;;;;4376884;32;318158;-78
2023/06/28 04:58:31;;;;;;;7.93;6.40;;;;;;;;;;4386679;32;316697;-78
2023/06/28 05:00:58;;;;;;;12.00;7.23;;;;;;;;;;4375659;32;317306;-80
2023/06/28 05:03:27;;;;;;;15.32;7.47;;;;;;;;;;4386293;32;317845;-78
2023/06/28 05:05:56;;;;;;;10.95;7.37;;;;;;;;;;4374246;32;317793;-86
2023/06/28 05:08:25;;;;;;;8.60;7.55;;;;;;;;;;4372575;32;317915;-81
2023/06/28 05:10:52;;;;;;;14.07;7.72;;;;;;;;;;4382802;32;316764;-83
2023/06/28 05:13:20;;;;;;;16.40;8.88;;;;;;;;;;4385176;32;317594;-78
2023/06/28 05:15:47;;;;;;;9.93;7.78;;;;;;;;;;4375598;32;317632;-90
2023/06/28 05:18:15;;;;;;;10.18;7.12;;;;;;;;;;4385426;32;317021;-79
2023/06/28 05:20:42;;;;;;;12.10;7.53;;;;;;;;;;4384809;32;358411;-78
2023/06/28 05:23:13;;;;;;;11.25;8.02;;;;;;;;;;4371545;32;417220;-78
2023/06/28 05:25:41;;;;;;;9.00;7.93;;;;;;;;;;4386014;32;318001;-78
2023/06/28 05:28:09;;;;;;;10.32;8.05;;;;;;;;;;4375857;32;316634;-78
2023/06/28 05:30:37;;;;;;;8.52;7.57;;;;;;;;;;4385389;32;317930;-78
2023/06/28 05:33:05;;;;;;;11.50;7.60;;;;;;;;;;4373775;32;316821;-79
2023/06/28 05:35:33;;;;;;;14.75;7.93;;;;;;;;;;4385951;32;317831;-80
2023/06/28 05:38:01;;;;;;;16.00;7.90;;;;;;;;;;4374327;32;317835;-81
2023/06/28 05:40:31;;;;;;;9.38;7.70;;;;;;;;;;4384938;32;317691;-86
2023/06/28 05:42:58;;;;;;;11.60;7.50;;;;;;;;;;4375876;32;316655;-85
2023/06/28 05:45:27;;;;;;;9.43;7.45;;;;;;;;;;4385609;32;316849;-89
2023/06/28 05:47:54;;;;;;;13.82;6.97;;;;;;;;;;4375452;32;316606;-80
2023/06/28 05:50:22;;;;;;;11.48;7.82;;;;;;;;;;4386214;32;317918;-85
2023/06/28 05:52:50;;;;;;;10.77;7.93;;;;;;;;;;4372991;32;318129;-79
2023/06/28 05:55:17;;;;;;;11.10;8.80;;;;;;;;;;4375943;32;317768;-79
2023/06/28 05:57:47;;;;;;;10.93;8.27;;;;;;;;;;4383455;32;317946;-79
2023/06/28 06:00:16;;;;;;;9.88;8.70;;;;;;;;;;4374851;32;317749;-79
2023/06/28 06:02:43;;;;;;;10.45;8.60;;;;;;;;;;4384567;32;317093;-79
2023/06/28 06:05:13;;;;;;;14.98;8.77;;;;;;;;;;4375689;32;317905;-79
2023/06/28 06:07:41;;;;;;;11.52;7.68;;;;;;;;;;4385362;32;318017;-79
2023/06/28 06:10:10;;;;;;;10.40;8.35;;;;;;;;;;4374864;32;317804;-80
2023/06/28 06:12:37;;;;;;;11.82;8.98;;;;;;;;;;4383586;32;318024;-79
2023/06/28 06:15:08;;;;;;;12.90;8.15;;;;;;;;;;4385020;32;317806;-83
2023/06/28 06:17:36;;;;;;;21.12;11.05;;;;;;;;;;4372233;32;417687;-79
2023/06/28 06:20:05;;;;;;;12.60;8.68;;;;;;;;;;4383977;32;318993;-79
2023/06/28 06:22:32;;;;;;;11.02;9.35;;;;;;;;;;4373204;32;417298;-80
2023/06/28 06:25:00;;;;;;;14.52;9.10;;;;;;;;;;4385467;32;317801;-80
2023/06/28 06:27:27;;;;;;;11.18;9.35;;;;;;;;;;4374516;32;318089;-79
2023/06/28 06:29:54;;;;;;;13.48;10.05;;;;;;;;;;4385627;32;318183;-79
2023/06/28 06:32:23;;;;;;;15.80;9.83;;;;;;;;;;4373694;32;323252;-79
2023/06/28 06:34:51;;;;;;;16.20;11.50;;;;;;;;;;4384811;32;317891;-79
2023/06/28 06:37:18;;;;;;;12.65;10.50;;;;;;;;;;4375147;32;319077;-79
2023/06/28 06:39:46;;;;;;;13.57;10.32;;;;;;;;;;4384052;32;346854;-79
2023/06/28 06:42:13;;;;;;;13.88;9.45;;;;;;;;;;4375192;32;319158;-79
2023/06/28 06:44:41;;;;;;;17.58;10.88;;;;;;;;;;4385072;32;317897;-86
2023/06/28 06:47:08;;;;;;;12.23;10.55;;;;;;;;;;4370686;32;318868;-81
2023/06/28 06:49:37;;;;;;;13.38;10.93;;;;;;;;;;4384925;32;318946;-81
2023/06/28 06:52:05;;;;;;;15.88;11.30;;;;;;;;;;4384753;32;318869;-81
2023/06/28 06:54:33;;;;;;;13.25;10.98;;;;;;;;;;4372053;32;418073;-81
2023/06/28 06:57:02;;;;;;;16.62;11.75;;;;;;;;;;4384615;32;318954;-81
2023/06/28 06:59:29;;;;;;;22.00;12.65;;;;;;;;;;4373459;32;319228;-81
2023/06/28 07:01:57;;;;;;;15.25;11.95;;;;;;;;;;4386393;32;318809;-84
2023/06/28 07:04:25;;;;;;;15.48;12.90;;;;;;;;;;4377602;32;319102;-84
2023/06/28 07:06:55;;;;;;;16.83;13.48;;;;;;;;;;4388575;32;318878;-84
2023/06/28 07:09:24;;;;;;;17.25;13.50;;;;;;;;;;4376262;32;318865;-85
2023/06/28 07:11:51;;;;;;;14.50;13.02;;;;;;;;;;4388096;32;318744;-84
2023/06/28 07:14:19;;;;;;;14.15;12.75;;;;;;;;;;4378978;32;318769;-85
2023/06/28 07:16:46;;;;;;;12.85;10.85;;;;;;;;;;4387109;32;319101;-85
2023/06/28 07:19:14;;;;;;;17.55;13.55;;;;;;;;;;4377786;32;319111;-85
2023/06/28 07:21:41;;;;;;;15.73;12.75;;;;;;;;;;4388763;32;319362;-84
2023/06/28 07:24:10;;;;;;;18.98;13.20;;;;;;;;;;4378190;32;318834;-85
2023/06/28 07:26:38;;;;;;;17.12;13.27;;;;;;;;;;4388476;32;318925;-84
2023/06/28 07:29:05;;;;;;;18.10;12.82;;;;;;;;;;4386609;32;318727;-88
2023/06/28 07:31:33;;;;;;;16.00;13.90;;;;;;;;;;4375278;32;417911;-88
2023/06/28 07:34:04;;;;;;;15.75;13.52;;;;;;;;;;4386864;32;318674;-88
2023/06/28 07:36:31;;;;;;;18.33;13.65;;;;;;;;;;4373756;32;418034;-88
2023/06/28 07:38:59;;;;;;;22.95;14.45;;;;;;;;;;4388047;32;319046;-88
2023/06/28 07:41:28;;;;;;;16.08;14.48;;;;;;;;;;4375126;32;319153;-87
2023/06/28 07:43:55;;;;;;;15.65;13.35;;;;;;;;;;4386712;32;318970;-78
2023/06/28 07:46:22;;;;;;;15.32;13.80;;;;;;;;;;4377625;32;319153;-78
2023/06/28 07:48:51;;;;;;;14.87;13.45;;;;;;;;;;4387492;32;318889;-78
2023/06/28 07:51:18;;;;;;;14.63;13.13;;;;;;;;;;4375209;32;318735;-80
2023/06/28 07:53:46;;;;;;;15.80;13.35;;;;;;;;;;4387386;32;318755;-78
2023/06/28 07:56:13;;;;;;;14.50;13.02;;;;;;;;;;4375611;32;318717;-85
2023/06/28 07:58:42;;;;;;;15.65;13.60;;;;;;;;;;4387275;32;318830;-78
2023/06/28 08:01:09;;;;;;;12.65;11.38;;;;;;;;;;4375081;32;319001;-79
2023/06/28 08:03:36;;;;;;;19.30;12.70;;;;;;;;;;4386259;32;318850;-79
2023/06/28 08:06:04;;;;;;;14.50;13.00;;;;;;;;;;4387757;32;318856;-79
2023/06/28 08:08:31;;;;;;;14.60;13.00;;;;;;;;;;4373254;32;420360;-78
2023/06/28 08:10:58;;;;;;;18.17;13.93;;;;;;;;;;4387326;32;318653;-78
2023/06/28 08:13:26;;;;;;;17.42;13.48;;;;;;;;;;4376968;32;318909;-78
2023/06/28 08:15:54;;;;;;;14.55;13.05;;;;;;;;;;4384687;32;318848;-79
2023/06/28 08:18:22;;;;;;;15.13;13.62;;;;;;;;;;4376695;32;319079;-78
2023/06/28 08:20:50;;;;;;;14.10;12.60;;;;;;;;;;4385824;32;318949;-78
2023/06/28 08:23:17;;;;;;;15.63;14.07;;;;;;;;;;4373647;32;356551;-78
2023/06/28 08:25:44;;;;;;;19.58;15.02;;;;;;;;;;4388544;32;318677;-78
2023/06/28 08:28:12;;;;;;;16.83;14.18;;;;;;;;;;4375913;32;346083;-79
2023/06/28 08:30:39;;;;;;;16.33;14.60;;;;;;;;;;4386494;32;319000;-78
2023/06/28 08:33:08;;;;;;;18.00;14.85;;;;;;;;;;4376561;32;319267;-80
2023/06/28 08:35:36;;;;;;;16.48;14.75;;;;;;;;;;4386595;32;318879;-78
2023/06/28 08:38:03;;;;;;;16.33;14.63;;;;;;;;;;4385706;32;318710;-89
2023/06/28 08:40:30;;;;;;;15.38;13.75;;;;;;;;;;4376006;32;319092;-79
2023/06/28 08:43:01;;;;;;;18.67;14.90;;;;;;;;;;4387084;32;318745;-81
2023/06/28 08:45:32;;;;;;;19.00;14.13;;;;;;;;;;4376525;32;319147;-80
2023/06/28 08:48:00;;;;;;;16.37;14.65;;;;;;;;;;4386747;32;318961;-80
2023/06/28 08:50:29;;;;;;;15.25;13.27;;;;;;;;;;4374384;32;319181;-80
2023/06/28 08:52:58;;;;;;;25.50;13.55;;;;;;;;;;4386235;32;318650;-79
2023/06/28 08:55:25;;;;;;;15.98;14.18;;;;;;;;;;4375681;32;334709;-89
2023/06/28 08:57:54;;;;;;;14.77;13.15;;;;;;;;;;4386679;32;319240;-84
2023/06/28 09:00:22;;;;;;;14.45;13.00;;;;;;;;;;4376429;32;319206;-83
2023/06/28 09:02:50;;;;;;;18.50;13.93;;;;;;;;;;4383004;32;318732;-81
2023/06/28 09:05:18;;;;;;;13.82;12.32;;;;;;;;;;4376730;32;318820;-82
2023/06/28 09:07:50;;;;;;;19.20;14.52;;;;;;;;;;4386091;32;318961;-80
2023/06/28 09:10:18;;;;;;;15.20;13.65;;;;;;;;;;4375705;32;318791;-82
2023/06/28 09:12:46;;;;;;;14.52;13.10;;;;;;;;;;4383969;32;319070;-80
2023/06/28 09:15:14;;;;;;;15.93;13.57;;;;;;;;;;4375615;32;318797;-80
2023/06/28 09:17:41;;;;;;;17.52;13.35;;;;;;;;;;4385009;32;317969;-83
2023/06/28 09:20:18;;;;;;;16.52;14.35;;;;;;;;;;4375101;32;318759;-84
2023/06/28 09:22:57;;;;;;;14.30;12.90;;;;;;;;;;4385092;32;318944;-81
2023/06/28 09:25:25;;;;;;;16.03;13.23;;;;;;;;;;4372764;32;318817;-81
2023/06/28 09:27:53;;;;;;;18.60;12.75;;;;;;;;;;4384458;32;351120;-80
2023/06/28 09:30:21;;;;;;;14.13;11.98;;;;;;;;;;4375529;32;319125;-85
2023/06/28 09:32:51;;;;;;;13.20;11.85;;;;;;;;;;4385887;32;318702;-81
2023/06/28 09:35:19;;;;;;;13.62;12.20;;;;;;;;;;4374903;32;319613;-81
2023/06/28 09:37:51;;;;;;;14.13;12.07;;;;;;;;;;4383984;32;318942;-83
2023/06/28 09:40:20;;;;;;;14.10;12.50;;;;;;;;;;4374413;32;318966;-84
2023/06/28 09:42:48;;;;;;;18.17;12.60;;;;;;;;;;4384243;32;317805;-85
2023/06/28 09:45:26;;;;;;;16.30;12.57;;;;;;;;;;4374905;32;318818;-84
2023/06/28 09:47:58;;;;;;;13.85;12.23;;;;;;;;;;4386047;32;318809;-83
2023/06/28 09:50:39;;;;;;;16.52;12.85;;;;;;;;;;4373766;32;319316;-84
2023/06/28 09:53:11;;;;;;;13.07;11.60;;;;;;;;;;4375154;32;319052;-85
2023/06/28 09:55:41;;;;;;;14.15;12.70;;;;;;;;;;4385068;32;319094;-85
2023/06/28 09:58:11;;;;;;;13.93;11.90;;;;;;;;;;4375331;32;319072;-84
2023/06/28 10:00:39;;;;;;;17.87;12.20;;;;;;;;;;4386339;32;332404;-84
2023/06/28 10:03:08;;;;;;;14.13;12.80;;;;;;;;;;4382179;32;318776;-84
2023/06/28 10:05:37;;;;;;;12.55;11.25;;;;;;;;;;4386675;32;318943;-84
2023/06/28 10:08:07;;;;;;;12.77;11.38;;;;;;;;;;4383640;32;319144;-83
2023/06/28 10:10:35;;;;;;;12.85;11.45;;;;;;;;;;4371190;32;418298;-84
2023/06/28 10:13:07;;;;;;;12.37;11.15;;;;;;;;;;4385597;32;319204;-84
2023/06/28 10:15:41;;;;;;;14.20;11.48;;;;;;;;;;4376093;32;418144;-84
2023/06/28 10:18:08;;;;;;;16.37;11.98;;;;;;;;;;4378046;32;401186;-85
2023/06/28 10:20:38;;;;;;;13.02;11.80;;;;;;;;;;4389809;32;318837;-84
2023/06/28 10:23:07;;;;;;;14.20;12.70;;;;;;;;;;4386092;32;319169;-85
2023/06/28 10:25:35;;;;;;;12.48;11.12;;;;;;;;;;4373888;32;418021;-85
2023/06/28 10:28:05;;;;;;;13.98;12.27;;;;;;;;;;4387743;32;318748;-86
2023/06/28 10:30:33;;;;;;;14.40;11.88;;;;;;;;;;4364567;32;419525;-85
2023/06/28 10:33:01;;;;;;;14.63;10.63;;;;;;;;;;4386853;32;317863;-85
2023/06/28 10:35:29;;;;;;;12.73;11.48;;;;;;;;;;4376515;32;318392;-93
2023/06/28 10:37:58;;;;;;;13.27;10.82;;;;;;;;;;4386339;32;319004;-84
2023/06/28 10:40:26;;;;;;;11.73;10.50;;;;;;;;;;4381077;32;318676;-85
2023/06/28 10:42:53;;;;;;;18.48;12.32;;;;;;;;;;4388824;32;319212;-85
2023/06/28 10:45:35;;;;;;;14.40;12.20;;;;;;;;;;4380703;32;317819;-85
2023/06/28 10:48:03;;;;;;;11.77;10.20;;;;;;;;;;4388731;32;318906;-85
2023/06/28 10:50:40;;;;;;;12.40;11.10;;;;;;;;;;4378001;32;318060;-85
2023/06/28 10:53:07;;;;;;;12.23;10.95;;;;;;;;;;4377767;32;333684;-88
2023/06/28 10:55:36;;;;;;;12.35;10.63;;;;;;;;;;4390283;32;319147;-85
2023/06/28 10:58:07;;;;;;;15.20;10.57;;;;;;;;;;4390077;32;318785;-94
2023/06/28 11:00:47;;;;;;;13.43;10.57;;;;;;;;;;4376239;32;418274;-85
2023/06/28 11:03:15;;;;;;;12.23;10.95;;;;;;;;;;4375850;32;319113;-96
2023/06/28 11:05:53;;;;;;;11.68;10.57;;;;;;;;;;4387456;32;317569;-86
2023/06/28 11:08:23;;;;;;;10.90;9.73;;;;;;;;;;4376402;32;318929;-84
2023/06/28 11:10:55;;;;;;;11.60;10.55;;;;;;;;;;4389192;32;316459;-84
2023/06/28 11:13:33;;;;;;;11.12;10.02;;;;;;;;;;4378765;32;319162;-85
2023/06/28 11:16:10;;;;;;;13.48;10.55;;;;;;;;;;4387731;32;319090;-85
2023/06/28 11:18:39;;;;;;;14.05;10.45;;;;;;;;;;4375189;32;421410;-84
2023/06/28 11:21:13;;;;;;;11.73;9.85;;;;;;;;;;4387290;32;318755;-84
2023/06/28 11:23:42;;;;;;;17.67;10.32;;;;;;;;;;4388614;32;317698;-83
2023/06/28 11:26:16;;;;;;;14.98;11.43;;;;;;;;;;4377575;32;319086;-85
2023/06/28 11:28:51;;;;;;;12.55;9.88;;;;;;;;;;4387426;32;318661;-90
2023/06/28 11:31:22;;;;;;;12.15;10.40;;;;;;;;;;4377468;32;326471;-89
2023/06/28 11:33:50;;;;;;;12.32;10.18;;;;;;;;;;4388074;32;318810;-89
2023/06/28 11:36:19;;;;;;;14.60;10.65;;;;;;;;;;4378081;32;319004;-89
2023/06/28 11:38:48;;;;;;;14.65;11.20;;;;;;;;;;4386471;32;318751;-89
2023/06/28 11:41:16;;;;;;;10.90;9.80;;;;;;;;;;4377508;32;318757;-88
2023/06/28 11:43:45;;;;;;;17.85;10.30;;;;;;;;;;4387142;32;317840;-77
2023/06/28 11:46:17;;;;;;;10.98;9.38;;;;;;;;;;4377850;32;319215;-77
2023/06/28 11:48:47;;;;;;;12.57;10.07;;;;;;;;;;4388063;32;317891;-78
2023/06/28 11:51:15;;;;;;;13.55;9.23;;;;;;;;;;4375741;32;319030;-77
2023/06/28 11:53:43;;;;;;;11.38;10.25;;;;;;;;;;4387900;32;318248;-77
2023/06/28 11:56:10;;;;;;;12.30;9.60;;;;;;;;;;4374056;32;318769;-78
2023/06/28 11:58:38;;;;;;;11.15;9.65;;;;;;;;;;4387979;32;317727;-77
2023/06/28 12:01:06;;;;;;;10.88;9.80;;;;;;;;;;4387101;32;335752;-77
2023/06/28 12:03:35;;;;;;;10.90;9.27;;;;;;;;;;4372770;32;417617;-77
2023/06/28 12:06:05;;;;;;;11.68;8.77;;;;;;;;;;4387482;32;317827;-78
2023/06/28 12:08:34;;;;;;;10.75;9.65;;;;;;;;;;4374956;32;417029;-78
2023/06/28 12:11:03;;;;;;;10.05;9.00;;;;;;;;;;4387735;32;317839;-78
2023/06/28 12:13:30;;;;;;;14.45;8.95;;;;;;;;;;4373559;32;349172;-78
2023/06/28 12:15:59;;;;;;;9.57;8.57;;;;;;;;;;4387347;32;317927;-78
2023/06/28 12:18:57;;;;;;;9.93;8.95;;;;;;;;;;4375469;32;316547;-76
2023/06/28 12:21:26;;;;;;;9.03;8.03;;;;;;;;;;4375321;32;317036;-77
2023/06/28 12:23:54;;;;;;;9.73;8.75;;;;;;;;;;4387300;32;316992;-76
2023/06/28 12:26:24;;;;;;;9.98;8.98;;;;;;;;;;4376936;32;316942;-77
2023/06/28 12:28:52;;;;;;;15.07;10.30;;;;;;;;;;4386957;32;315713;-77
2023/06/28 12:31:19;;;;;;;12.82;10.90;;;;;;;;;;4377069;32;319084;-76
2023/06/28 12:33:55;;;;;;;13.18;10.95;;;;;;;;;;4384779;32;318735;-76
2023/06/28 12:36:23;;;;;;;14.07;10.30;;;;;;;;;;4375131;32;318903;-77
2023/06/28 12:38:52;;;;;;;14.07;10.20;;;;;;;;;;4387415;32;318718;-77
2023/06/28 12:41:19;;;;;;;14.38;10.52;;;;;;;;;;4375502;32;319055;-76
2023/06/28 12:43:57;;;;;;;17.83;10.80;;;;;;;;;;4387404;32;318975;-76
2023/06/28 12:46:24;;;;;;;12.80;10.18;;;;;;;;;;4376386;32;318924;-77
2023/06/28 12:48:55;;;;;;;10.73;9.65;;;;;;;;;;4387237;32;318816;-77
2023/06/28 12:51:23;;;;;;;12.57;9.60;;;;;;;;;;4375394;32;319371;-77
2023/06/28 12:53:53;;;;;;;12.30;10.52;;;;;;;;;;4387102;32;317786;-77
2023/06/28 12:56:20;;;;;;;10.82;9.80;;;;;;;;;;4376698;32;318614;-77
2023/06/28 12:58:48;;;;;;;11.00;9.50;;;;;;;;;;4385243;32;317903;-77
2023/06/28 13:01:15;;;;;;;11.48;10.38;;;;;;;;;;4376489;32;317881;-77
2023/06/28 13:03:42;;;;;;;16.02;9.45;;;;;;;;;;4387069;32;320879;-77
2023/06/28 13:06:09;;;;;;;15.70;9.13;;;;;;;;;;4375078;32;318030;-77
2023/06/28 13:08:37;;;;;;;11.77;9.23;;;;;;;;;;4386246;32;317815;-77
2023/06/28 13:11:06;;;;;;;10.43;9.52;;;;;;;;;;4386180;32;317645;-77
2023/06/28 13:13:33;;;;;;;16.52;10.20;;;;;;;;;;4372620;32;417647;-77
2023/06/28 13:16:01;;;;;;;14.80;10.18;;;;;;;;;;4385833;32;318899;-77
2023/06/28 13:18:28;;;;;;;10.38;9.35;;;;;;;;;;4376011;32;318809;-77
2023/06/28 13:20:55;;;;;;;15.85;9.65;;;;;;;;;;4385811;32;317821;-77
2023/06/28 13:23:23;;;;;;;18.37;9.27;;;;;;;;;;4375583;32;317827;-85
2023/06/28 13:25:50;;;;;;;15.77;9.05;;;;;;;;;;4384977;32;348116;-78
2023/06/28 13:28:19;;;;;;;15.05;10.30;;;;;;;;;;4374861;32;317935;-77
2023/06/28 13:30:47;;;;;;;11.90;9.15;;;;;;;;;;4385388;32;317595;-77
2023/06/28 13:33:14;;;;;;;10.30;8.85;;;;;;;;;;4375900;32;317798;-77
2023/06/28 13:35:41;;;;;;;9.85;8.85;;;;;;;;;;4384934;32;345241;-77
2023/06/28 13:38:09;;;;;;;12.10;9.65;;;;;;;;;;4374763;32;316728;-77
2023/06/28 13:40:37;;;;;;;11.35;10.18;;;;;;;;;;4385968;32;318211;-78
2023/06/28 13:43:07;;;;;;;9.40;8.45;;;;;;;;;;4385712;32;318895;-77
2023/06/28 13:45:35;;;;;;;10.20;8.55;;;;;;;;;;4372789;32;416807;-77
2023/06/28 13:48:03;;;;;;;10.85;9.57;;;;;;;;;;4385456;32;317836;-77
2023/06/28 13:50:30;;;;;;;16.05;9.20;;;;;;;;;;4372962;32;347850;-77
2023/06/28 13:52:58;;;;;;;10.05;9.00;;;;;;;;;;4385942;32;318130;-77
2023/06/28 13:55:26;;;;;;;9.43;8.48;;;;;;;;;;4375217;32;317910;-77
2023/06/28 13:57:53;;;;;;;14.73;8.73;;;;;;;;;;4385867;32;316743;-77
2023/06/28 14:00:21;;;;;;;8.20;7.30;;;;;;;;;;4375349;32;317686;-78
2023/06/28 14:02:51;;;;;;;8.57;7.68;;;;;;;;;;4384704;32;317008;-77
2023/06/28 14:05:18;;;;;;;14.00;8.27;;;;;;;;;;4375622;32;316677;-79
2023/06/28 14:07:46;;;;;;;12.98;8.00;;;;;;;;;;4385222;32;318221;-77
2023/06/28 14:10:14;;;;;;;12.68;8.00;;;;;;;;;;4374541;32;318060;-78
2023/06/28 14:12:42;;;;;;;11.77;6.82;;;;;;;;;;4385017;32;317827;-77
2023/06/28 14:15:10;;;;;;;10.70;7.50;;;;;;;;;;4375434;32;318134;-77
2023/06/28 14:17:38;;;;;;;7.87;6.72;;;;;;;;;;4385158;32;317888;-82
2023/06/28 14:20:09;;;;;;;11.23;6.55;;;;;;;;;;4386316;32;316656;-84
2023/06/28 14:22:36;;;;;;;9.60;5.95;;;;;;;;;;4378248;32;417349;-78
2023/06/28 14:25:05;;;;;;;6.78;6.07;;;;;;;;;;4383939;32;316674;-78